Terminal Aerodrome Forecast
Issued by NWS Flagstaff, AZ

Home | Current Version | Previous Version | Text Only | Print | Product List | Glossary On
Versions: 1 2 3 4 5 6 7 8 9 10 11 12 13 14 15 16 17 18
000
FTUS45 KFGZ 211100
TAFINW
TAF
KINW 211136Z 2112/2212 VRB03KT P6SM SCT110
     FM211900 20010KT P6SM BKN080 BKN120
      TEMPO 2122/2202 VRB20G30KT 4SM -TSRA BKN060CB OVC110
     FM220600 VRB05KT P6SM SCT080 BKN110=

USA.gov is the U.S. government's official web portal to all federal, state and local government web resources and services.